createdAt,value
2022-09-01T00:01:49.612Z,94805.41
2022-09-01T00:04:20.363Z,94795.94
2022-09-01T00:06:47.965Z,94784.91
2022-09-01T00:09:18.243Z,94789.13
2022-09-01T00:11:50.434Z,94789.13
2022-09-01T00:14:30.225Z,94786.50
2022-09-01T00:17:05.857Z,94781.25
2022-09-01T00:19:33.983Z,94782.31
2022-09-01T00:22:01.647Z,94788.63
2022-09-01T00:24:29.640Z,94772.34
2022-09-01T00:26:57.388Z,94784.97
2022-09-01T00:29:26.155Z,94792.84
2022-09-01T00:31:53.968Z,94791.78
2022-09-01T00:34:21.043Z,94777.59
2022-09-01T00:36:48.300Z,94794.91
2022-09-01T00:39:15.924Z,94785.47
2022-09-01T00:41:44.181Z,94800.44
2022-09-01T00:44:14.490Z,94798.59
2022-09-01T00:46:49.635Z,94786.78
2022-09-01T00:49:34.993Z,94788.63
2022-09-01T00:52:10.462Z,94790.72
2022-09-01T00:54:42.959Z,94798.59
2022-09-01T00:57:10.487Z,94809.34
2022-09-01T00:59:43.753Z,94801.19
2022-09-01T01:02:11.457Z,94791.22
2022-09-01T01:04:38.867Z,94798.56
2022-09-01T01:07:06.411Z,94802.75
2022-09-01T01:09:36.287Z,94802.22
2022-09-01T01:12:05.685Z,94804.34
2022-09-01T01:14:37.048Z,94791.72
2022-09-01T01:17:04.418Z,94782.78
2022-09-01T01:19:55.936Z,94805.63
2022-09-01T01:22:45.143Z,94792.28
2022-09-01T01:25:12.932Z,94791.19
2022-09-01T01:27:43.939Z,94810.63
2022-09-01T01:30:12.537Z,94800.34
2022-09-01T01:32:43.339Z,94794.84
2022-09-01T01:35:15.030Z,94791.91
2022-09-01T01:37:46.643Z,94814.25
2022-09-01T01:40:16.629Z,94818.72
2022-09-01T01:42:46.142Z,94806.91
2022-09-01T01:45:17.294Z,94805.06
2022-09-01T01:47:48.162Z,94809.56
2022-09-01T01:50:15.784Z,94804.81
2022-09-01T01:52:45.576Z,94811.63
2022-09-01T01:55:13.304Z,94813.72
2022-09-01T01:57:51.625Z,94826.84
2022-09-01T02:00:30.042Z,94816.88
2022-09-01T02:02:58.830Z,94824.19
2022-09-01T02:05:32.280Z,94817.59
2022-09-01T02:08:04.802Z,94828.59
2022-09-01T02:10:35.528Z,94827.28
2022-09-01T02:13:07.557Z,94822.03
2022-09-01T02:15:46.477Z,94832.00
2022-09-01T02:18:19.882Z,94822.00
2022-09-01T02:20:49.623Z,94828.75
2022-09-01T02:23:20.250Z,94826.69
2022-09-01T02:26:14.040Z,94829.25
2022-09-01T02:28:38.769Z,94810.34
2022-09-01T02:31:09.054Z,94830.81
2022-09-01T02:33:37.977Z,94812.44
2022-09-01T02:36:14.421Z,94819.50
2022-09-01T02:38:45.984Z,94818.69
2022-09-01T02:41:15.697Z,94816.00
2022-09-01T02:43:46.306Z,94806.88
2022-09-01T02:46:14.886Z,94823.16
2022-09-01T02:48:46.229Z,94830.47
2022-09-01T02:51:17.326Z,94828.63
2022-09-01T02:53:46.792Z,94824.97
2022-09-01T02:56:14.537Z,94815.47
2022-09-01T02:58:48.705Z,94801.28
2022-09-01T03:01:20.720Z,94826.53
2022-09-01T03:03:50.328Z,94808.72
2022-09-01T03:06:24.285Z,94817.13
2022-09-01T03:08:55.759Z,94817.41
2022-09-01T03:11:24.804Z,94815.03
2022-09-01T03:13:52.391Z,94815.59
2022-09-01T03:16:19.559Z,94807.50
2022-09-01T03:18:46.565Z,94812.47
2022-09-01T03:21:17.756Z,94799.91
2022-09-01T03:23:46.804Z,94802.06
2022-09-01T03:26:15.217Z,94803.63
2022-09-01T03:28:42.341Z,94805.72
2022-09-01T03:31:09.293Z,94815.22
2022-09-01T03:33:37.316Z,94802.34
2022-09-01T03:36:15.117Z,94811.53
2022-09-01T03:38:44.340Z,94807.00
2022-09-01T03:41:13.219Z,94814.34
2022-09-01T03:43:45.882Z,94809.31
2022-09-01T03:46:23.121Z,94820.84
2022-09-01T03:48:55.186Z,94810.81
2022-09-01T03:51:23.737Z,94824.44
2022-09-01T03:53:55.262Z,94825.75
2022-09-01T03:56:25.675Z,94826.53
2022-09-01T03:58:54.740Z,94806.59
2022-09-01T04:01:22.033Z,94811.88
2022-09-01T04:03:51.032Z,94815.03
2022-09-01T04:06:24.268Z,94798.69
2022-09-01T04:09:03.257Z,94802.41
2022-09-01T04:11:33.929Z,94802.41
2022-09-01T04:14:01.889Z,94813.97
2022-09-01T04:16:52.971Z,94816.88
2022-09-01T04:19:27.042Z,94818.19
2022-09-01T04:22:00.222Z,94820.84
2022-09-01T04:24:32.937Z,94817.72
2022-09-01T04:27:02.509Z,94808.81
2022-09-01T04:29:32.120Z,94816.22
2022-09-01T04:32:07.176Z,94799.19
2022-09-01T04:34:38.692Z,94809.47
2022-09-01T04:37:10.206Z,94811.59
2022-09-01T04:39:39.443Z,94813.16
2022-09-01T04:42:08.904Z,94817.41
2022-09-01T04:44:36.784Z,94815.03
2022-09-01T04:47:10.923Z,94816.88
2022-09-01T04:49:38.455Z,94813.50
2022-09-01T04:52:05.339Z,94812.69
2022-09-01T04:54:35.042Z,94812.72
2022-09-01T04:57:02.145Z,94817.72
2022-09-01T04:59:30.655Z,94818.00
2022-09-01T05:02:01.304Z,94823.50
2022-09-01T05:04:35.381Z,94816.94
2022-09-01T05:07:04.317Z,94831.41
2022-09-01T05:09:37.293Z,94814.34
2022-09-01T05:12:16.070Z,94822.22
2022-09-01T05:14:48.993Z,94821.16
2022-09-01T05:17:21.865Z,94805.41
2022-09-01T05:19:51.272Z,94818.06
2022-09-01T05:22:22.461Z,94812.78
2022-09-01T05:25:21.167Z,94822.75
2022-09-01T05:27:50.030Z,94822.25
2022-09-01T05:30:19.525Z,94813.81
2022-09-01T05:32:49.308Z,94803.03
2022-09-01T05:35:17.659Z,94818.50
2022-09-01T05:37:44.967Z,94814.81
2022-09-01T05:40:16.370Z,94815.81
2022-09-01T05:42:45.455Z,94810.78
2022-09-01T05:45:14.340Z,94806.78
2022-09-01T05:47:42.219Z,94823.53
2022-09-01T05:50:14.508Z,94824.03
2022-09-01T05:52:47.973Z,94819.91
2022-09-01T05:55:15.500Z,94813.59
2022-09-01T05:57:45.296Z,94818.25
2022-09-01T06:00:14.522Z,94813.47
2022-09-01T06:02:43.268Z,94812.84
2022-09-01T06:05:15.965Z,94813.34
2022-09-01T06:07:44.355Z,94808.25
2022-09-01T06:10:14.767Z,94796.81
2022-09-01T06:12:43.246Z,94803.63
2022-09-01T06:15:16.128Z,94807.22
2022-09-01T06:17:48.093Z,94801.88
2022-09-01T06:20:19.031Z,94787.06
2022-09-01T06:22:47.638Z,94806.00
2022-09-01T06:25:18.561Z,94805.00
2022-09-01T06:27:48.331Z,94799.28
2022-09-01T06:30:24.366Z,94800.34
2022-09-01T06:33:11.397Z,94805.97
2022-09-01T06:35:47.236Z,94800.44
2022-09-01T06:38:17.632Z,94815.13
2022-09-01T06:40:48.675Z,94810.69
2022-09-01T06:43:19.661Z,94788.72
2022-09-01T06:45:54.625Z,94806.56
2022-09-01T06:48:23.783Z,94802.28
2022-09-01T06:53:51.281Z,94796.72
2022-09-01T06:56:19.701Z,94789.31
2022-09-01T06:58:48.508Z,94789.41
2022-09-01T07:01:20.056Z,94802.28
2022-09-01T07:03:52.003Z,94784.84
2022-09-01T07:09:50.127Z,94787.75
2022-09-01T07:13:05.035Z,94788.63
2022-09-01T07:18:25.466Z,94796.31
2022-09-01T07:21:36.879Z,94793.72
2022-09-01T07:24:17.748Z,94797.00
2022-09-01T07:26:35.665Z,94791.63
2022-09-01T07:29:06.126Z,94783.06
2022-09-01T07:34:42.163Z,94785.53
2022-09-01T07:43:27.212Z,94766.44
2022-09-01T07:49:29.467Z,94783.97
2022-09-01T07:51:53.461Z,94791.84
2022-09-01T07:54:23.959Z,94787.53
2022-09-01T07:56:52.122Z,94779.44
2022-09-01T07:59:21.365Z,94790.75
2022-09-01T08:02:05.800Z,94790.94
2022-09-01T08:04:34.681Z,94784.06
2022-09-01T08:07:03.366Z,94790.56
2022-09-01T08:09:37.724Z,94787.66
2022-09-01T08:12:08.460Z,94783.72
2022-09-01T08:14:43.309Z,94782.88
2022-09-01T08:17:18.368Z,94780.78
2022-09-01T08:19:59.889Z,94802.56
2022-09-01T08:22:53.559Z,94778.75
2022-09-01T08:25:25.041Z,94781.69
2022-09-01T08:27:59.686Z,94791.78
2022-09-01T08:30:28.463Z,94789.38
2022-09-01T08:32:55.681Z,94778.16
2022-09-01T08:35:23.373Z,94796.25
2022-09-01T08:37:50.443Z,94787.66
2022-09-01T08:40:20.843Z,94780.88
2022-09-01T08:43:02.992Z,94772.72
2022-09-01T08:45:33.701Z,94785.06
2022-09-01T08:49:09.692Z,94792.31
2022-09-01T08:51:34.597Z,94786.91
2022-09-01T08:54:06.593Z,94789.59
2022-09-01T08:56:39.830Z,94787.00
2022-09-01T08:59:12.851Z,94780.28
2022-09-01T09:02:12.518Z,94783.41
2022-09-01T09:05:17.224Z,94782.44
2022-09-01T09:08:06.547Z,94781.19
2022-09-01T09:10:50.433Z,94780.16
2022-09-01T09:13:24.801Z,94766.53
2022-09-01T09:16:08.707Z,94753.69
2022-09-01T09:18:40.236Z,94767.25
2022-09-01T09:21:24.584Z,94764.91
2022-09-01T09:24:01.070Z,94759.00
2022-09-01T09:26:48.586Z,94745.34
2022-09-01T09:29:15.495Z,94753.97
2022-09-01T09:32:00.382Z,94759.63
2022-09-01T09:34:34.981Z,94765.66
2022-09-01T09:37:23.904Z,94746.88
2022-09-01T09:40:08.581Z,94756.19
2022-09-01T09:42:59.614Z,94743.22
2022-09-01T09:45:41.672Z,94749.88
2022-09-01T09:48:29.640Z,94748.63
2022-09-01T09:51:21.505Z,94745.41
2022-09-01T09:53:49.084Z,94743.66
2022-09-01T09:56:15.892Z,94724.88
2022-09-01T09:58:46.935Z,94737.78
2022-09-01T10:01:26.245Z,94743.31
2022-09-01T10:03:59.188Z,94731.47
2022-09-01T10:06:47.400Z,94734.44
2022-09-01T10:09:37.189Z,94739.88
2022-09-01T10:12:05.634Z,94726.69
2022-09-01T10:14:51.779Z,94735.06
2022-09-01T10:17:38.565Z,94724.88
2022-09-01T10:20:14.699Z,94720.25
2022-09-01T10:22:41.610Z,94725.88
2022-09-01T10:25:18.018Z,94724.75
2022-09-01T10:27:50.228Z,94731.22
2022-09-01T10:30:21.754Z,94728.19
2022-09-01T10:33:01.505Z,94722.72
2022-09-01T10:35:39.028Z,94725.59
2022-09-01T10:38:11.042Z,94720.25
2022-09-01T10:40:49.216Z,94732.47
2022-09-01T10:43:41.692Z,94730.03
2022-09-01T10:46:18.241Z,94725.13
2022-09-01T10:48:51.762Z,94716.22
2022-09-01T10:51:35.748Z,94711.22
2022-09-01T10:54:05.827Z,94706.25
2022-09-01T10:56:52.043Z,94707.94
2022-09-01T10:59:41.836Z,94704.13
2022-09-01T11:02:28.096Z,94705.19
2022-09-01T11:04:59.412Z,94704.25
2022-09-01T11:07:58.203Z,94679.41
2022-09-01T11:10:34.226Z,94695.72
2022-09-01T11:13:21.049Z,94685.78
2022-09-01T11:15:48.815Z,94690.03
2022-09-01T11:18:27.487Z,94690.25
2022-09-01T11:20:56.309Z,94683.16
2022-09-01T11:23:27.793Z,94687.91
2022-09-01T11:26:21.864Z,94679.56
2022-09-01T11:28:49.897Z,94677.84
2022-09-01T11:31:31.474Z,94676.03
2022-09-01T11:34:20.929Z,94670.59
2022-09-01T11:37:00.520Z,94668.63
2022-09-01T11:39:52.544Z,94671.09
2022-09-01T11:42:26.844Z,94668.72
2022-09-01T11:45:03.194Z,94669.44
2022-09-01T11:47:46.756Z,94662.91
2022-09-01T11:50:16.580Z,94658.88
2022-09-01T11:53:12.452Z,94654.19
2022-09-01T11:55:42.784Z,94657.50
2022-09-01T11:58:29.110Z,94652.25
2022-09-01T12:00:57.959Z,94639.25
2022-09-01T12:03:30.689Z,94649.28
2022-09-01T12:06:04.286Z,94650.13
2022-09-01T12:08:34.857Z,94643.03
2022-09-01T12:11:10.073Z,94640.78
2022-09-01T12:13:37.527Z,94638.38
2022-09-01T12:16:17.939Z,94637.69
2022-09-01T12:18:51.860Z,94639.44
2022-09-01T12:21:29.242Z,94641.75
2022-09-01T12:24:17.870Z,94638.63
2022-09-01T12:26:49.249Z,94640.19
2022-09-01T12:29:17.306Z,94632.84
2022-09-01T12:31:47.426Z,94638.53
2022-09-01T12:34:47.911Z,94636.72
2022-09-01T12:37:14.883Z,94637.16
2022-09-01T12:39:47.991Z,94633.88
2022-09-01T12:42:41.125Z,94640.56
2022-09-01T12:45:11.174Z,94644.53
2022-09-01T12:47:38.418Z,94637.50
2022-09-01T12:50:12.885Z,94635.41
2022-09-01T12:52:58.298Z,94631.19
2022-09-01T12:58:25.757Z,94626.56
2022-09-01T13:01:10.163Z,94630.19
2022-09-01T13:04:03.766Z,94632.03
2022-09-01T13:06:30.577Z,94610.00
2022-09-01T13:08:57.393Z,94626.16
2022-09-01T13:11:24.372Z,94622.34
2022-09-01T13:13:51.152Z,94607.31
2022-09-01T13:16:18.049Z,94621.63
2022-09-01T13:21:32.928Z,94620.16
2022-09-01T13:23:59.846Z,94610.81
2022-09-01T13:26:29.846Z,94610.28
2022-09-01T13:28:57.356Z,94602.75
2022-09-01T13:31:31.678Z,94589.13
2022-09-01T13:34:22.995Z,94607.00
2022-09-01T13:36:51.043Z,94602.22
2022-09-01T13:39:19.039Z,94604.78
2022-09-01T13:41:47.349Z,94607.72
2022-09-01T13:44:18.650Z,94611.28
2022-09-01T13:47:28.677Z,94602.50
2022-09-01T13:52:21.675Z,94602.81
2022-09-01T13:54:48.468Z,94609.81
2022-09-01T13:57:16.672Z,94614.44
2022-09-01T13:59:44.445Z,94601.25
2022-09-01T14:02:11.223Z,94600.50
2022-09-01T14:04:38.391Z,94595.97
2022-09-01T14:07:05.454Z,94592.13
2022-09-01T14:09:32.369Z,94596.56
2022-09-01T14:11:59.478Z,94597.28
2022-09-01T14:14:26.672Z,94595.56
2022-09-01T14:16:54.068Z,94596.91
2022-09-01T14:19:21.073Z,94598.69
2022-09-01T14:21:48.868Z,94598.00
2022-09-01T14:24:16.581Z,94597.22
2022-09-01T14:26:43.409Z,94604.66
2022-09-01T14:29:10.365Z,94615.50
2022-09-01T14:31:37.902Z,94620.34
2022-09-01T14:34:06.876Z,94616.28
2022-09-01T14:36:34.175Z,94616.34
2022-09-01T14:39:01.186Z,94596.72
2022-09-01T14:41:28.220Z,94605.38
2022-09-01T14:44:02.781Z,94613.63
2022-09-01T14:46:34.396Z,94610.09
2022-09-01T14:49:02.782Z,94608.06
2022-09-01T14:54:18.197Z,94601.16
2022-09-01T14:57:28.363Z,94608.53
2022-09-01T14:59:32.670Z,94599.97
2022-09-01T15:02:00.755Z,94608.22
2022-09-01T15:04:28.013Z,94607.34
2022-09-01T15:06:55.868Z,94596.53
2022-09-01T15:09:22.760Z,94602.53
2022-09-01T15:11:49.571Z,94601.16
2022-09-01T15:14:16.561Z,94600.38
2022-09-01T15:16:43.469Z,94594.38
2022-09-01T15:19:13.451Z,94607.63
2022-09-01T15:21:42.808Z,94600.13
2022-09-01T15:24:10.662Z,94596.88
2022-09-01T15:26:41.000Z,94590.88
2022-09-01T15:29:12.121Z,94582.81
2022-09-01T15:31:39.426Z,94591.28
2022-09-01T15:34:06.574Z,94587.50
2022-09-01T15:36:37.188Z,94582.97
2022-09-01T15:39:04.151Z,94577.63
2022-09-01T15:41:33.503Z,94583.47
2022-09-01T15:44:05.510Z,94577.84
2022-09-01T15:46:34.137Z,94579.13
2022-09-01T15:49:05.936Z,94589.47
2022-09-01T15:51:38.706Z,94599.19
2022-09-01T15:54:17.920Z,94606.13
2022-09-01T15:56:47.323Z,94601.44
2022-09-01T15:59:15.213Z,94608.22
2022-09-01T16:01:45.066Z,94610.25
2022-09-01T16:04:20.077Z,94616.19
2022-09-01T16:06:49.594Z,94602.44
2022-09-01T16:09:18.609Z,94606.94
2022-09-01T16:11:45.470Z,94620.06
2022-09-01T16:14:12.535Z,94611.50
2022-09-01T16:16:56.753Z,94614.19
2022-09-01T16:19:35.886Z,94612.16
2022-09-01T16:22:25.528Z,94613.38
2022-09-01T16:24:57.940Z,94600.91
2022-09-01T16:27:33.037Z,94616.22
2022-09-01T16:30:08.265Z,94618.06
2022-09-01T16:32:36.301Z,94625.91
2022-09-01T16:35:04.536Z,94630.59
2022-09-01T16:37:41.448Z,94631.84
2022-09-01T16:40:28.234Z,94634.34
2022-09-01T16:43:17.450Z,94637.44
2022-09-01T16:46:20.559Z,94645.41
2022-09-01T16:49:18.345Z,94642.75
2022-09-01T16:52:02.152Z,94620.41
2022-09-01T16:54:49.512Z,94654.94
2022-09-01T16:57:32.652Z,94653.38
2022-09-01T17:00:01.916Z,94651.19
2022-09-01T17:02:51.102Z,94642.59
2022-09-01T17:05:25.889Z,94653.69
2022-09-01T17:07:55.437Z,94643.72
2022-09-01T17:11:18.679Z,94642.00
2022-09-01T17:13:49.477Z,94634.00
2022-09-01T17:16:29.794Z,94624.03
2022-09-01T17:18:59.750Z,94629.03
2022-09-01T17:21:45.342Z,94649.16
2022-09-01T17:24:38.679Z,94648.38
2022-09-01T17:27:28.523Z,94631.97
2022-09-01T17:29:57.257Z,94634.63
2022-09-01T17:32:54.917Z,94658.34
2022-09-01T17:36:02.938Z,94661.00
2022-09-01T17:39:07.547Z,94656.19
2022-09-01T17:42:25.081Z,94666.78
2022-09-01T17:44:56.399Z,94651.19
2022-09-01T17:47:32.663Z,94658.66
2022-09-01T17:50:08.188Z,94653.97
2022-09-01T17:52:59.745Z,94666.13
2022-09-01T17:55:53.786Z,94668.31
2022-09-01T17:58:48.519Z,94672.09
2022-09-01T18:01:34.594Z,94674.88
2022-09-01T18:04:16.988Z,94671.75
2022-09-01T18:07:04.833Z,94665.94
2022-09-01T18:09:41.533Z,94657.47
2022-09-01T18:12:13.530Z,94677.44
2022-09-01T18:14:43.447Z,94679.47
2022-09-01T18:17:16.907Z,94673.78
2022-09-01T18:19:48.115Z,94673.59
2022-09-01T18:22:22.891Z,94673.53
2022-09-01T18:24:57.911Z,94676.47
2022-09-01T18:27:27.711Z,94675.66
2022-09-01T18:29:56.971Z,94679.19
2022-09-01T18:32:49.504Z,94674.00
2022-09-01T18:35:42.157Z,94681.41
2022-09-01T18:38:14.895Z,94686.69
2022-09-01T18:40:48.735Z,94686.34
2022-09-01T18:43:29.293Z,94684.63
2022-09-01T18:46:05.157Z,94690.03
2022-09-01T18:48:44.327Z,94691.69
2022-09-01T18:51:29.835Z,94694.97
2022-09-01T18:54:20.990Z,94687.44
2022-09-01T18:56:51.875Z,94658.59
2022-09-01T18:59:48.004Z,94682.69
2022-09-01T19:02:21.043Z,94684.34
2022-09-01T19:04:52.705Z,94679.28
2022-09-01T19:07:42.252Z,94697.19
2022-09-01T19:10:27.362Z,94696.81
2022-09-01T19:12:57.108Z,94692.72
2022-09-01T19:15:47.103Z,94695.97
2022-09-01T19:18:20.195Z,94695.75
2022-09-01T19:21:05.906Z,94691.84
2022-09-01T19:23:47.846Z,94694.59
2022-09-01T19:26:21.484Z,94697.34
2022-09-01T19:29:05.230Z,94694.78
2022-09-01T19:31:42.391Z,94697.53
2022-09-01T19:34:25.693Z,94705.00
2022-09-01T19:36:59.817Z,94707.16
2022-09-01T19:39:33.530Z,94706.56
2022-09-01T19:42:08.997Z,94711.84
2022-09-01T19:44:47.861Z,94708.53
2022-09-01T19:47:21.337Z,94705.78
2022-09-01T19:50:15.068Z,94720.06
2022-09-01T19:52:56.831Z,94712.84
2022-09-01T19:55:43.086Z,94711.94
2022-09-01T19:58:21.218Z,94713.59
2022-09-01T20:01:01.446Z,94716.06
2022-09-01T20:03:46.749Z,94706.94
2022-09-01T20:06:35.312Z,94719.06
2022-09-01T20:09:07.603Z,94726.03
2022-09-01T20:11:49.603Z,94714.38
2022-09-01T20:14:32.494Z,94709.09
2022-09-01T20:17:06.373Z,94721.81
2022-09-01T20:19:55.464Z,94721.63
2022-09-01T20:22:50.125Z,94712.97
2022-09-01T20:25:19.297Z,94708.84
2022-09-01T20:27:52.150Z,94700.09
2022-09-01T20:30:37.229Z,94703.53
2022-09-01T20:33:09.338Z,94704.13
2022-09-01T20:35:39.063Z,94705.47
2022-09-01T20:38:55.224Z,94702.34
2022-09-01T20:41:39.542Z,94701.34
2022-09-01T20:44:15.673Z,94699.97
2022-09-01T20:46:42.507Z,94684.28
2022-09-01T20:49:15.996Z,94709.06
2022-09-01T20:51:50.437Z,94714.34
2022-09-01T20:54:57.639Z,94711.50
2022-09-01T20:57:55.187Z,94713.25
2022-09-01T21:00:26.063Z,94713.81
2022-09-01T21:03:17.752Z,94709.09
2022-09-01T21:06:42.843Z,94700.69
2022-09-01T21:09:18.888Z,94696.56
2022-09-01T21:11:55.147Z,94709.75
2022-09-01T21:14:31.519Z,94707.13
2022-09-01T21:17:45.924Z,94711.81
2022-09-01T21:20:36.412Z,94712.41
2022-09-01T21:23:03.787Z,94711.38
2022-09-01T21:25:33.553Z,94724.91
2022-09-01T21:28:04.542Z,94724.69
2022-09-01T21:30:34.903Z,94729.66
2022-09-01T21:33:03.041Z,94733.66
2022-09-01T21:35:30.038Z,94743.66
2022-09-01T21:37:56.821Z,94746.16
2022-09-01T21:40:25.446Z,94739.66
2022-09-01T21:43:00.835Z,94737.06
2022-09-01T21:45:27.932Z,94740.31
2022-09-01T21:47:54.780Z,94735.59
2022-09-01T21:50:23.628Z,94737.75
2022-09-01T21:52:50.915Z,94735.75
2022-09-01T21:55:22.523Z,94737.47
2022-09-01T21:57:50.946Z,94747.78
2022-09-01T22:00:24.139Z,94740.69
2022-09-01T22:02:51.625Z,94731.28
2022-09-01T22:05:18.520Z,94720.66
2022-09-01T22:07:47.213Z,94733.00
2022-09-01T22:10:18.072Z,94719.38
2022-09-01T22:12:46.595Z,94723.56
2022-09-01T22:15:15.913Z,94730.41
2022-09-01T22:17:43.352Z,94729.81
2022-09-01T22:20:12.313Z,94721.09
2022-09-01T22:22:39.788Z,94722.91
2022-09-01T22:25:11.256Z,94726.25
2022-09-01T22:27:38.091Z,94720.69
2022-09-01T22:30:06.290Z,94721.19
2022-09-01T22:32:36.245Z,94714.28
2022-09-01T22:35:04.971Z,94717.91
2022-09-01T22:37:31.758Z,94719.50
2022-09-01T22:39:58.650Z,94714.72
2022-09-01T22:42:25.770Z,94710.50
2022-09-01T22:44:52.541Z,94711.53
2022-09-01T22:47:19.488Z,94706.47
2022-09-01T22:49:46.235Z,94700.38
2022-09-01T22:52:13.867Z,94710.31
2022-09-01T22:54:41.135Z,94703.94
2022-09-01T22:57:07.876Z,94710.75
2022-09-01T22:59:34.778Z,94707.81
2022-09-01T23:02:01.921Z,94708.00
2022-09-01T23:04:32.143Z,94699.97
2022-09-01T23:06:59.266Z,94697.28
2022-09-01T23:09:26.105Z,94687.81
2022-09-01T23:11:52.974Z,94688.56
2022-09-01T23:14:19.808Z,94686.22
2022-09-01T23:16:47.492Z,94696.22
2022-09-01T23:19:22.505Z,94700.38
2022-09-01T23:21:51.181Z,94694.50
2022-09-01T23:24:19.855Z,94696.78
2022-09-01T23:26:47.968Z,94687.06
2022-09-01T23:29:15.154Z,94690.63
2022-09-01T23:31:43.672Z,94683.19
2022-09-01T23:34:10.634Z,94687.38
2022-09-01T23:36:37.603Z,94694.75
2022-09-01T23:39:05.797Z,94680.66
2022-09-01T23:41:34.954Z,94679.88
2022-09-01T23:44:04.223Z,94670.69
2022-09-01T23:46:34.119Z,94675.69
2022-09-01T23:49:02.215Z,94653.25
2022-09-01T23:51:29.186Z,94673.53
2022-09-01T23:53:56.181Z,94676.16
2022-09-01T23:56:25.815Z,94670.88
2022-09-01T23:58:53.019Z,94654.06
